Tiempo atmosférico en la estación meteorológica de Zafra, Badajoz (433 m.)



Fecha
DESCASC
Temp. máxima en grados centígrados (hora)
DESCASC
Temp. mínima en grados centígrados (hora)
DESCASC
Temp. media en grados centígrados
DESCASC
Racha de viento máxima en m/sg (hora)
DESCASC
Velocidad máxima media en intervalos de 10 minutos(hora)
DESCASC
Precipitaciones diarias en mm
DESCASC
Precipitaciones de 00:00 a 06:00 en mm
DESCASC
Precipitaciones de 06:00 a 12:00 en mm
DESCASC
Precipitaciones de 12:00 a 18:00 en mm
DESCASC
Precipitaciones de 18:00 a 24:00 en mm
DESCASC
17-09-2020 27.2 (15:40) 18.5 (05:00) 22.9 15.28 (19:20) 8.61 (18:50) 0 0 0 0 0
16-09-2020 29.4 (15:10) 14.2 (07:30) 21.8 8.61 (16:30) 5 (15:30) 0 0 0 0 0
15-09-2020 31 (18:50) 14.2 (08:00) 22.6 7.5 (14:20) 4.17 (03:00) 0 0 0 0 0
14-09-2020 32.1 (16:10) 19.6 (00:00) 25.8 11.67 (18:10) 5.56 (00:10) 0 0 0 0 0
13-09-2020 34.3 (16:50) 21.1 (00:00) 27.7 12.5 (13:20) 8.06 (12:50) 0 0 0 0 0
12-09-2020 35 (15:20) 16.5 (00:00) 25.8 11.11 (13:20) 6.39 (12:50) 0 0 0 0 0
11-09-2020 34.6 (16:50) 16 (00:00) 25.3 8.06 (13:40) 4.72 (19:20) 0 0 0 0 0
10-09-2020 34.2 (16:50) 15.4 (00:00) 24.8 7.5 (14:00) 3.61 (18:50) 0 0 0 0 0
09-09-2020 31.5 (16:50) 17.4 (00:00) 24.4 8.33 (02:00) 5 (02:20) 0 0 0 0 0
08-09-2020 32.6 (17:00) 17.3 (00:00) 24.9 7.78 (14:10) 4.72 (19:10) 0 0 0 0 0
07-09-2020 35 (17:20) 17.2 (08:30) 26.1 10 (01:10) 7.22 (01:10) 0 0 0 0 0
06-09-2020 35.8 (15:50) 17.6 (00:00) 26.7 10 (15:30) 4.44 (17:20) 0 0 0 0 0
05-09-2020 35.3 (17:00) 16.7 (00:00) 26 7.5 (15:30) 4.44 (14:10) 0 0 0 0 0
04-09-2020 34.9 (17:50) 17 (00:00) 26 8.33 (14:50) 4.17 (02:50) 0 0 0 0 0
03-09-2020 35.1 (17:20) 15.8 (00:00) 25.4 9.44 (15:00) 4.72 (02:20) 0 0 0 0 0
02-09-2020 34.1 (17:10) 13.5 (00:00) 23.8 6.67 (16:20) 4.17 (00:10) 0 0 0 0 0
01-09-2020 32 (16:00) 15.2 (00:00) 23.6 9.44 (17:10) 5.28 (23:30) 0 0 0 0 0
31-08-2020 32.8 (17:30) 12.3 (00:00) 22.5 8.89 (20:20) 5.83 (20:00) 0 0 0 0 0
30-08-2020 28.5 (17:50) 12 (00:00) 20.3 7.78 (14:20) 4.72 (17:00) 0 0 0 0 0
29-08-2020 26.1 (17:10) 13.6 (00:00) 19.9 13.06 (10:40) 8.89 (10:40) 0 0 0 0 0
28-08-2020 30.9 (16:20) 16.3 (00:00) 23.6 13.61 (19:20) 8.06 (16:20) 0 0 0 0 0
27-08-2020 36.1 (16:20) 19.2 (00:00) 27.6 9.44 (16:50) 6.67 (17:00) 0 0 0 0 0
26-08-2020 38.7 (17:10) 18.5 (00:00) 28.6 7.5 (17:30) 3.89 (20:30) 0 0 0 0 0
25-08-2020 38.2 (17:50) 18.5 (00:00) 28.4 8.06 (00:50) 4.72 (00:50) 0 0 0 0 0
24-08-2020 37.7 (16:30) 15.2 (00:00) 26.5 8.61 (15:50) 4.72 (18:20) 0 0 0 0 0
23-08-2020 33.8 (18:00) 13.1 (00:00) 23.4 10.83 (14:20) 5.28 (15:50) 0 0 0 0 0
22-08-2020 33 (17:30) 15 (00:00) 24 8.33 (16:50) 4.44 (16:00) 0 0 0 0 0
21-08-2020 32.8 (15:20) 17.5 (00:00) 25.1 10 (13:20) 6.11 (21:20) 0 0 0 0 0
20-08-2020 34.9 (17:20) 13.7 (00:00) 24.3 8.89 (18:10) 5.56 (20:30) 0 0 0 0 0

Gráficas

Temp. máximas Temp. mínimas Temp. medias Precipitaciones Rachas de viento máximas Velocidades máximas media en intervalos de 10 minutos

Datos horarios

Fecha y hora oficial Temperatura (ºC) Velocidad del viento (km/h) Dirección del viento Racha (km/h) Dirección de racha Precipitación (mm) Presión (hPa) Tendencia (hPa) Humedad (%)
2020-09-18 23:00:00 17.7 20 Sudeste 42 Sudeste 0 -- -- 84
2020-09-18 22:00:00 17.1 18 Sudeste 45 Sudoeste 2.6 -- -- 87
2020-09-18 21:00:00 17.9 21 Sur 44 Sudeste 0.2 -- -- 82
2020-09-18 20:00:00 19.1 21 Sur 64 Sur 0.2 -- -- 73
2020-09-18 19:00:00 19.5 14 Sur 52 Sur 0 -- -- 75
2020-09-18 18:00:00 20.5 26 Sudeste 49 Sur 0.2 -- -- 72
2020-09-18 17:00:00 20.5 19 Sudeste 36 Sudeste 0.2 -- -- 76
2020-09-18 16:00:00 20.2 20 Sudeste 38 Sur 0 -- -- 71
2020-09-18 15:00:00 17.3 19 Sudeste 33 Sur 2 -- -- 82
2020-09-18 14:00:00 17.9 13 Sudeste 30 Sur 0.8 -- -- 87
2020-09-18 13:00:00 17.9 20 Sur 36 Sur 2.2 -- -- 87
2020-09-18 12:00:00 18.3 15 Sur 40 Sudeste 0.2 -- -- 83
2020-09-18 11:00:00 19.2 18 Sudeste 30 Sudeste 0 -- -- 73
2020-09-18 10:00:00 18.3 10 Sudeste 20 Sudeste 0 -- -- 76
2020-09-18 09:00:00 15.1 10 Sudeste 14 Sudeste 0 -- -- 87
2020-09-18 08:00:00 15.5 7 Sudeste 22 Sudeste 0 -- -- 87
2020-09-18 07:00:00 16.5 12 Sudeste 26 Sur 0 -- -- 83
2020-09-18 06:00:00 17 11 Sur 20 Sudeste 0 -- -- 87
2020-09-18 05:00:00 17.5 9 Sudeste 17 Sudeste 0 -- -- 89
2020-09-18 04:00:00 17.8 3 Oeste 19 Sur 0.2 -- -- 88
2020-09-18 03:00:00 17.7 8 Sudeste 21 Sudeste 0.2 -- -- 90
2020-09-18 02:00:00 17.7 9 Sudeste 36 Sur 5 -- -- 88
2020-09-18 01:00:00 18.8 12 Sudoeste 30 Sur 1.6 -- -- 85
2020-09-18 00:00:00 20.8 10 Sur 21 Sur 0 -- -- 71
2020-09-17 23:00:00 21.1 17 Sur 29 Sur 0 -- -- 68
2020-09-17 22:00:00 21.8 12 Sur 28 Sur 0 -- -- 65
2020-09-17 21:00:00 22.2 14 Sur 36 Sudoeste 0 -- -- 64
2020-09-17 20:00:00 23.4 22 Sudoeste 55 Sur 0 -- -- 58
2020-09-17 19:00:00 24.6 26 Sur 51 Sur 0 -- -- 52
2020-09-17 18:00:00 25.4 27 Sudeste 46 Sur 0 -- -- 52
2020-09-17 17:00:00 25.8 26 Sur 44 Sur 0 -- -- 51
2020-09-17 16:00:00 26.5 27 Sudeste 41 Sudeste 0 -- -- 48
2020-09-17 15:00:00 26.3 17 Sur 39 Sur 0 -- -- 44
2020-09-17 14:00:00 25.2 24 Sudeste 45 Sudeste 0 -- -- 47
2020-09-17 13:00:00 23.8 24 Sur 35 Sudeste 0 -- -- 56
2020-09-17 12:00:00 22.6 22 Sur 33 Sudeste 0 -- -- 59
2020-09-17 11:00:00 21.5 17 Sur 30 Sur 0 -- -- 61
2020-09-17 10:00:00 20.9 16 Sur 28 Sur 0 -- -- 66
2020-09-17 09:00:00 19.8 11 Sudeste 19 Sur 0 -- -- 74
2020-09-17 08:00:00 19.4 8 Sudeste 15 Sudeste 0 -- -- 77
2020-09-17 07:00:00 19.7 10 Sudeste 27 Sudeste 0 -- -- 78
2020-09-17 06:00:00 19.4 12 Sudeste 24 Sudeste 0 -- -- 80
2020-09-17 05:00:00 18.5 7 Sudeste 15 Sudeste 0 -- -- 78
2020-09-17 04:00:00 19.8 10 Sudeste 18 Sur 0 -- -- 68
2020-09-17 03:00:00 19.8 5 Sur 11 Sudeste 0 -- -- 67
2020-09-17 02:00:00 21.7 8 Sudeste 19 Sudeste 0 -- -- 61
2020-09-17 01:00:00 22 8 Sudeste 15 Sur 0 -- -- 63
2020-09-17 00:00:00 23.5 10 Sur 14 Sur 0 -- -- 59
2020-09-16 23:00:00 23.9 4 Sur 14 Sur 0 -- -- 60
2020-09-16 22:00:00 24.3 4 Sudoeste 17 Sudeste 0 -- -- 62
2020-09-16 21:00:00 25.6 10 Sudeste 22 Sur 0 -- -- 49
2020-09-16 20:00:00 26.6 13 Sudeste 20 Sudeste 0 -- -- 45
2020-09-16 19:00:00 27.1 13 Sur 24 Sur 0 -- -- 41
2020-09-16 18:00:00 27.9 14 Sudeste 26 Sudeste 0 -- -- 39
2020-09-16 17:00:00 28.4 14 Sudeste 31 Sur 0 -- -- 38
2020-09-16 16:00:00 29 17 Sudeste 28 Sudeste 0 -- -- 37
2020-09-16 15:00:00 29.1 13 Sur 23 Sudeste 0 -- -- 37
2020-09-16 14:00:00 28.1 9 Sudeste 26 Sudeste 0 -- -- 40
2020-09-16 13:00:00 27.7 14 Sudeste 25 Sudeste 0 -- -- 41
2020-09-16 12:00:00 26.3 10 Sudeste 17 Sudeste 0 -- -- 45
2020-09-16 11:00:00 24.9 7 Sudeste 12 Sudeste 0 -- -- 47
2020-09-16 10:00:00 19.9 8 Sudeste 11 Sudeste 0 -- -- 62
2020-09-16 09:00:00 15.8 6 Sur 10 Sur 0 -- -- 74
2020-09-16 08:00:00 14.3 9 Sudeste 14 Sudeste 0 -- -- 77
2020-09-16 07:00:00 14.3 8 Sudeste 9 Sudeste 0 -- -- 77
2020-09-16 06:00:00 15.4 7 Sur 9 Sur 0 -- -- 75
2020-09-16 05:00:00 16.4 6 Sur 11 Sudeste 0 -- -- 72
2020-09-16 04:00:00 16.5 5 Sur 6 Sudeste 0 -- -- 71
2020-09-16 03:00:00 18.8 0 Calma 9 Este 0 -- -- 62
2020-09-16 02:00:00 21.5 6 Sur 27 Sudoeste 0 -- -- 56
2020-09-16 01:00:00 22.1 12 Oeste 22 Sur 0 -- -- 53
2020-09-16 00:00:00 19.6 6 Sudeste 7 Sudeste 0 -- -- 54
2020-09-15 23:00:00 21.3 0 Calma 5 Noroeste 0 -- -- 49
2020-09-15 22:00:00 23.8 6 Noroeste 9 Noroeste 0 -- -- 43
2020-09-15 21:00:00 25.8 0 Calma 9 Oeste 0 -- -- 39
2020-09-15 20:00:00 29.5 5 Sudoeste 12 Oeste 0 -- -- 34
2020-09-15 19:00:00 31 4 Sur 16 Noroeste 0 -- -- 30
2020-09-15 18:00:00 30.6 8 Sur 20 Sudoeste 0 -- -- 32
2020-09-15 17:00:00 30.2 8 Sur 22 Sur 0 -- -- 33
2020-09-15 16:00:00 30.6 7 Sur 24 Sudeste 0 -- -- 34
2020-09-15 15:00:00 29.5 12 Sur 27 Sudeste 0 -- -- 35
2020-09-15 14:00:00 28.4 8 Sudeste 22 Sudoeste 0 -- -- 38
2020-09-15 13:00:00 26.6 7 Sudoeste 17 Sur 0 -- -- 45
2020-09-15 12:00:00 24.2 10 Sudeste 18 Sudeste 0 -- -- 54
2020-09-15 11:00:00 22.8 3 Sudeste 9 Sur 0 -- -- 58
2020-09-15 10:00:00 19.2 7 Sudeste 10 Sudeste 0 -- -- 73
2020-09-15 09:00:00 15.5 6 Sur 11 Sur 0 -- -- 82
2020-09-15 08:00:00 14.2 8 Sur 13 Sur 0 -- -- 85
2020-09-15 07:00:00 14.7 7 Sur 11 Sur 0 -- -- 83
2020-09-15 06:00:00 15.5 5 Sur 10 Sur 0 -- -- 80
2020-09-15 05:00:00 16.7 3 Sudeste 6 Este 0 -- -- 75
2020-09-15 04:00:00 18.4 4 Sudeste 19 Sudoeste 0 -- -- 70
2020-09-15 03:00:00 20 15 Sudoeste 25 Sudoeste 0 -- -- 65
2020-09-15 02:00:00 20.9 10 Sur 20 Sur 0 -- -- 68
2020-09-15 01:00:00 21.9 10 Sur 22 Sur 0 -- -- 68
2020-09-15 00:00:00 22.8 5 Sur 21 Sur 0 -- -- 67
2020-09-14 23:00:00 23.9 10 Sudeste 19 Sur 0 -- -- 65
2020-09-14 22:00:00 25.2 4 Este 18 Sudeste 0 -- -- 58
2020-09-14 21:00:00 26.6 14 Sur 32 Sur 0 -- -- 50
2020-09-14 20:00:00 27.9 13 Sur 28 Sudoeste 0 -- -- 45
2020-09-14 19:00:00 29.6 17 Sur 42 Sur 0 -- -- 41
2020-09-14 18:00:00 30.3 13 Sur 36 Sur 0 -- -- 40
2020-09-14 17:00:00 31.3 14 Sur 40 Sur 0 -- -- 37
2020-09-14 16:00:00 32 15 Sur 36 Sudoeste 0 -- -- 34
2020-09-14 15:00:00 31.5 10 Sur 33 Sur 0 -- -- 34
2020-09-14 14:00:00 30.9 18 Sur 35 Sudoeste 0 -- -- 35
2020-09-14 13:00:00 29.8 16 Sur 27 Sur 0 -- -- 36
2020-09-14 12:00:00 26.5 5 Noroeste 11 Oeste 0 -- -- 46
2020-09-14 11:00:00 24.1 9 Noroeste 14 Noroeste 0 -- -- 57
2020-09-14 10:00:00 22 8 Noroeste 14 Norte 0 -- -- 65
2020-09-14 09:00:00 19.9 4 Noroeste 7 Noroeste 0 -- -- 68
2020-09-14 08:00:00 19.8 0 Calma 8 Sur 0 -- -- 68
2020-09-14 07:00:00 19.9 5 Sudeste 8 Sur 0 -- -- 67
2020-09-14 06:00:00 20.1 4 Sudeste 8 Sudeste 0 -- -- 67
2020-09-14 05:00:00 20.5 5 Sur 8 Sur 0 -- -- 67
2020-09-14 04:00:00 22.1 2 Sudeste 21 Sudoeste 0 -- -- 62
2020-09-14 03:00:00 22.7 6 Sur 17 Sudoeste 0 -- -- 60
2020-09-14 02:00:00 23.4 6 Sur 24 Sur 0 -- -- 58
2020-09-14 01:00:00 24 16 Sur 34 Sur 0 -- -- 57
2020-09-14 00:00:00 25 16 Sudoeste 30 Sudoeste 0 -- -- 54
2020-09-13 23:00:00 25.7 17 Sudoeste 32 Sudoeste 0 -- -- 54
2020-09-13 22:00:00 27.5 15 Sudoeste 25 Oeste 0 -- -- 48
2020-09-13 21:00:00 29.5 5 Sudeste 16 Sudeste 0 -- -- 29
2020-09-13 20:00:00 32 11 Sudeste 31 Sudeste 0 -- -- 26
2020-09-13 19:00:00 33.2 13 Sudeste 32 Sudeste 0 -- -- 25
2020-09-13 18:00:00 33.8 15 Sudeste 34 Sudeste 0 -- -- 24
2020-09-13 17:00:00 33.9 19 Sur 34 Sur 0 -- -- 23
2020-09-13 16:00:00 32.7 22 Sur 40 Sur 0 -- -- 24
2020-09-13 15:00:00 33.9 23 Sudeste 43 Sudeste 0 -- -- 22
2020-09-13 14:00:00 32.7 26 Sudeste 45 Sur 0 -- -- 23
2020-09-13 13:00:00 31.5 28 Sudeste 41 Sudeste 0 -- -- 24
2020-09-13 12:00:00 28.5 20 Sudeste 32 Sudeste 0 -- -- 31
2020-09-13 11:00:00 26.7 14 Sudeste 23 Sudeste 0 -- -- 36
2020-09-13 10:00:00 24.6 12 Sur 21 Sur 0 -- -- 41
2020-09-13 09:00:00 22.4 9 Sur 15 Sudeste 0 -- -- 42
2020-09-13 08:00:00 21.3 6 Sudeste 12 Sur 0 -- -- 41
2020-09-13 07:00:00 22.1 8 Sur 16 Sudeste 0 -- -- 39
2020-09-13 06:00:00 21.6 11 Sur 14 Sudeste 0 -- -- 40
2020-09-13 05:00:00 22.5 12 Sur 15 Sur 0 -- -- 40
2020-09-13 04:00:00 23.2 9 Sudeste 17 Sudeste 0 -- -- 37
2020-09-13 03:00:00 23.3 9 Sudeste 13 Sudeste 0 -- -- 35
2020-09-13 02:00:00 22.6 10 Sudeste 12 Sur 0 -- -- 35
2020-09-13 01:00:00 23.2 7 Sudeste 12 Sur 0 -- -- 35
2020-09-13 00:00:00 24.8 7 Sur 9 Sur 0 -- -- 33
2020-09-12 23:00:00 25.8 6 Sur 10 Sudeste 0 -- -- 32
2020-09-12 22:00:00 26.6 6 Sur 8 Sur 0 -- -- 30
2020-09-12 21:00:00 29.7 3 Sudeste 12 Sudeste 0 -- -- 27
2020-09-12 20:00:00 33.2 7 Sudeste 23 Sur 0 -- -- 23
2020-09-12 19:00:00 33.5 12 Sudeste 22 Sur 0 -- -- 22
2020-09-12 18:00:00 33.9 15 Sur 23 Sudeste 0 -- -- 22
2020-09-12 17:00:00 34.3 14 Sur 24 Sur 0 -- -- 21
2020-09-12 16:00:00 34.2 11 Sudeste 32 Sur 0 -- -- 21
2020-09-12 15:00:00 34.1 19 Sudeste 36 Sudeste 0 -- -- 22
2020-09-12 14:00:00 33 18 Sudeste 40 Sur 0 -- -- 23
2020-09-12 13:00:00 32 18 Sudeste 34 Sudeste 0 -- -- 24
2020-09-12 12:00:00 30.6 21 Sudeste 30 Sudeste 0 -- -- 26
2020-09-12 11:00:00 28.1 15 Sudeste 26 Sudeste 0 -- -- 31
2020-09-12 10:00:00 24.1 10 Sudeste 13 Sudeste 0 -- -- 41
2020-09-12 09:00:00 17.6 12 Sudeste 15 Sur 0 -- -- 56
2020-09-12 08:00:00 17.2 10 Sur 17 Sudeste 0 -- -- 56
2020-09-12 07:00:00 17.4 12 Sudeste 14 Sudeste 0 -- -- 55
2020-09-12 06:00:00 17.9 9 Sudeste 12 Sur 0 -- -- 54
2020-09-12 05:00:00 18.4 10 Sur 17 Sudeste 0 -- -- 53
2020-09-12 04:00:00 19 8 Sudeste 13 Sur 0 -- -- 52
2020-09-12 03:00:00 19.4 7 Sudeste 9 Sudeste 0 -- -- 51
2020-09-12 02:00:00 21.9 5 Sudeste 10 Noroeste 0 -- -- 45
2020-09-12 01:00:00 25.6 6 Sudoeste 26 Sudoeste 0 -- -- 38
2020-09-12 00:00:00 21.8 3 Sudeste 8 Sudeste 0 -- -- 38
2020-09-11 23:00:00 22.9 6 Sur 8 Sur 0 -- -- 36
2020-09-11 22:00:00 24.3 4 Sudeste 5 Sudeste 0 -- -- 33
2020-09-11 21:00:00 28 2 Sudoeste 15 Noroeste 0 -- -- 29
2020-09-11 20:00:00 31.6 12 Noroeste 22 Norte 0 -- -- 24
2020-09-11 19:00:00 32.4 16 Noroeste 24 Noroeste 0 -- -- 24
2020-09-11 18:00:00 33.9 9 Este 17 Nordeste 0 -- -- 20
2020-09-11 17:00:00 34 6 Este 12 Este 0 -- -- 21
2020-09-11 16:00:00 33.4 4 Sudoeste 21 Sudeste 0 -- -- 21
2020-09-11 15:00:00 33.5 5 Este 18 Sudeste 0 -- -- 21
2020-09-11 14:00:00 33.3 7 Nordeste 29 Sudeste 0 -- -- 21
2020-09-11 13:00:00 32.8 10 Sudeste 17 Sudeste 0 -- -- 22
2020-09-11 12:00:00 31.3 6 Este 15 Sudeste 0 -- -- 25
2020-09-11 11:00:00 28.9 10 Sudeste 17 Sudeste 0 -- -- 28
2020-09-11 10:00:00 22.1 5 Sur 12 Sudeste 0 -- -- 40
2020-09-11 09:00:00 18.3 9 Sudeste 17 Sudeste 0 -- -- 44
2020-09-11 08:00:00 16.1 10 Sur 18 Sudeste 0 -- -- 46
2020-09-11 07:00:00 16 10 Sudeste 13 Sudeste 0 -- -- 46
2020-09-11 06:00:00 16.3 9 Sudeste 11 Sudeste 0 -- -- 44
2020-09-11 05:00:00 17.6 9 Sur 13 Sur 0 -- -- 41
2020-09-11 04:00:00 17.5 7 Sudeste 13 Sudeste 0 -- -- 41
2020-09-11 03:00:00 17.7 6 Sur 9 Sudeste 0 -- -- 39
2020-09-11 02:00:00 19.2 7 Sudeste 15 Norte 0 -- -- 35
2020-09-11 01:00:00 20.8 9 Sudeste 17 Sur 0 -- -- 32
2020-09-11 00:00:00 20.3 8 Sudeste 10 Sudeste 0 -- -- 33
2020-09-10 23:00:00 21.7 8 Sudeste 10 Sudeste 0 -- -- 32
2020-09-10 22:00:00 24 2 Sudeste 5 Noroeste 0 -- -- 29
2020-09-10 21:00:00 27.6 5 Noroeste 17 Noroeste 0 -- -- 25
2020-09-10 20:00:00 31.5 9 Norte 18 Nordeste 0 -- -- 21
2020-09-10 19:00:00 32.9 10 Norte 23 Norte 0 -- -- 20
2020-09-10 18:00:00 33.9 6 Nordeste 21 Norte 0 -- -- 19
2020-09-10 17:00:00 33.9 5 Noroeste 15 Norte 0 -- -- 19
2020-09-10 16:00:00 32.6 10 Noroeste 19 Noroeste 0 -- -- 21
2020-09-10 15:00:00 31.7 5 Norte 21 Noroeste 0 -- -- 22
2020-09-10 14:00:00 31.7 9 Noroeste 27 Noroeste 0 -- -- 24
2020-09-10 13:00:00 30.9 7 Noroeste 18 Noroeste 0 -- -- 24
2020-09-10 12:00:00 29.4 9 Noroeste 14 Noroeste 0 -- -- 27
2020-09-10 11:00:00 27.6 3 Oeste 10 Sudeste 0 -- -- 29
2020-09-10 10:00:00 22.7 8 Sudeste 13 Sur 0 -- -- 43
2020-09-10 09:00:00 17.4 8 Sur 12 Sur 0 -- -- 51
2020-09-10 08:00:00 15.6 9 Sur 12 Sur 0 -- -- 54
2020-09-10 07:00:00 15.6 8 Sur 12 Sur 0 -- -- 53
2020-09-10 06:00:00 16 9 Sur 11 Sur 0 -- -- 53
2020-09-10 05:00:00 16.6 9 Sudeste 11 Sur 0 -- -- 52
2020-09-10 04:00:00 17 8 Sur 10 Sur 0 -- -- 51
2020-09-10 03:00:00 17.3 6 Sudeste 9 Sudeste 0 -- -- 46
2020-09-10 02:00:00 17.6 6 Sudeste 10 Sudeste 0 -- -- 45
2020-09-10 01:00:00 18.7 7 Sudeste 9 Sudeste 0 -- -- 43
2020-09-10 00:00:00 19.7 6 Sudeste 7 Sudeste 0 -- -- 42
2020-09-09 23:00:00 21.6 5 Sudeste 6 Sudeste 0 -- -- 38
2020-09-09 22:00:00 24.1 2 Noroeste 8 Noroeste 0 -- -- 33
2020-09-09 21:00:00 27.3 7 Noroeste 21 Noroeste 0 -- -- 29
2020-09-09 20:00:00 29.9 14 Noroeste 23 Noroeste 0 -- -- 27
2020-09-09 19:00:00 31.1 15 Noroeste 24 Noroeste 0 -- -- 27
2020-09-09 18:00:00 31.4 9 Norte 19 Noroeste 0 -- -- 29
2020-09-09 17:00:00 31.5 10 Noroeste 24 Norte 0 -- -- 31
2020-09-09 16:00:00 31 10 Oeste 22 Oeste 0 -- -- 33
2020-09-09 15:00:00 29.6 10 Noroeste 17 Noroeste 0 -- -- 38
2020-09-09 14:00:00 28.6 10 Norte 16 Noroeste 0 -- -- 39
2020-09-09 13:00:00 27 6 Norte 16 Noroeste 0 -- -- 45
2020-09-09 12:00:00 25.6 5 Norte 17 Sur 0 -- -- 50
2020-09-09 11:00:00 23.9 9 Sudeste 14 Este 0 -- -- 63
2020-09-09 10:00:00 21.4 6 Sudeste 9 Sudeste 0 -- -- 76
2020-09-09 09:00:00 18.7 4 Sudeste 6 Sudeste 0 -- -- 85
2020-09-09 08:00:00 18 3 Sudeste 11 Sudoeste 0 -- -- 85
2020-09-09 07:00:00 19.6 7 Sudoeste 28 Sudoeste 0 -- -- 80
2020-09-09 06:00:00 20 9 Sudoeste 17 Sur 0 -- -- 76
2020-09-09 05:00:00 20.6 8 Sudeste 17 Sudoeste 0 -- -- 67
2020-09-09 04:00:00 21.4 5 Norte 15 Sudeste 0 -- -- 61
2020-09-09 03:00:00 22 10 Sudeste 30 Sudoeste 0 -- -- 61
2020-09-09 02:00:00 22.9 14 Sudoeste 30 Oeste 0 -- -- 49
2020-09-09 01:00:00 20.2 5 Sur 9 Sudeste 0 -- -- 37
2020-09-09 00:00:00 21.7 4 Sudeste 8 Noroeste 0 -- -- 34
2020-09-08 23:00:00 24.1 4 Norte 11 Noroeste 0 -- -- 30
2020-09-08 22:00:00 24.9 7 Noroeste 16 Noroeste 0 -- -- 30
2020-09-08 21:00:00 27.3 10 Noroeste 27 Norte 0 -- -- 27
2020-09-08 20:00:00 29.7 13 Norte 26 Norte 0 -- -- 25
2020-09-08 19:00:00 31.5 15 Norte 28 Norte 0 -- -- 23
2020-09-08 18:00:00 32.5 11 Nordeste 28 Norte 0 -- -- 21
2020-09-08 17:00:00 32.6 6 Nordeste 22 Este 0 -- -- 20
2020-09-08 16:00:00 32.1 8 Sudeste 20 Nordeste 0 -- -- 21
2020-09-08 15:00:00 31.5 10 Nordeste 28 Sudeste 0 -- -- 21
2020-09-08 14:00:00 30.7 10 Este 21 Nordeste 0 -- -- 22
2020-09-08 13:00:00 29.3 9 Este 26 Este 0 -- -- 32
2020-09-08 12:00:00 26.9 12 Este 22 Este 0 -- -- 41
2020-09-08 11:00:00 25.5 9 Este 18 Este 0 -- -- 36
2020-09-08 10:00:00 23.1 10 Sudeste 19 Sudeste 0 -- -- 30
2020-09-08 09:00:00 19.9 4 Sudeste 12 Sur 0 -- -- 30
2020-09-08 08:00:00 17.4 5 Sudeste 9 Sur 0 -- -- 33
2020-09-08 07:00:00 18.6 6 Sudeste 12 Sur 0 -- -- 32
2020-09-08 06:00:00 18.5 5 Sudeste 10 Sudeste 0 -- -- 36
2020-09-08 05:00:00 18.1 2 Sudeste 8 Noroeste 0 -- -- 35
2020-09-08 04:00:00 19.7 3 Este 11 Sudeste 0 -- -- 32
2020-09-08 03:00:00 22.6 6 Sur 17 Este 0 -- -- 29
2020-09-08 02:00:00 22.3 4 Sudeste 12 Sudeste 0 -- -- 34
2020-09-08 01:00:00 23.8 4 Norte 14 Norte 0 -- -- 32
2020-09-08 00:00:00 24.1 7 Norte 11 Noroeste 0 -- -- 30
2020-09-07 23:00:00 25.5 7 Noroeste 11 Noroeste 0 -- -- 29
2020-09-07 22:00:00 27.6 6 Noroeste 14 Norte 0 -- -- 28
2020-09-07 21:00:00 30.2 8 Norte 23 Norte 0 -- -- 25
2020-09-07 20:00:00 32.9 17 Noroeste 30 Noroeste 0 -- -- 22
2020-09-07 19:00:00 34.1 15 Norte 33 Norte 0 -- -- 21
2020-09-07 18:00:00 34.7 20 Noroeste 34 Norte 0 -- -- 22
2020-09-07 17:00:00 34.9 15 Noroeste 33 Noroeste 0 -- -- 23
2020-09-07 16:00:00 34.6 15 Noroeste 30 Noroeste 0 -- -- 23
2020-09-07 15:00:00 33.5 17 Noroeste 27 Noroeste 0 -- -- 25
2020-09-07 14:00:00 33.1 15 Noroeste 30 Noroeste 0 -- -- 26
2020-09-07 13:00:00 31.2 16 Noroeste 24 Noroeste 0 -- -- 30
2020-09-07 12:00:00 29.9 15 Noroeste 22 Norte 0 -- -- 31
2020-09-07 11:00:00 27.1 12 Noroeste 16 Noroeste 0 -- -- 36
2020-09-07 10:00:00 23.8 5 Noroeste 9 Sudeste 0 -- -- 45
2020-09-07 09:00:00 19 7 Sudeste 11 Sudeste 0 -- -- 58
2020-09-07 08:00:00 17.6 9 Sur 12 Sur 0 -- -- 62
2020-09-07 07:00:00 18.4 8 Sur 12 Sur 0 -- -- 59
2020-09-07 06:00:00 19.5 9 Sur 11 Sur 0 -- -- 56
2020-09-07 05:00:00 20.9 7 Sudeste 10 Sudeste 0 -- -- 53
2020-09-07 04:00:00 21.2 5 Sudeste 10 Sudeste 0 -- -- 51
2020-09-07 03:00:00 22.8 6 Este 10 Sudeste 0 -- -- 47
2020-09-07 02:00:00 24.6 5 Este 36 Sudoeste 0 -- -- 43
2020-09-07 01:00:00 26.9 25 Sudoeste 35 Sudoeste 0 -- -- 39
2020-09-07 00:00:00 22 7 Sudeste 10 Sudeste 0 -- -- 32
2020-09-06 23:00:00 23.8 7 Sudeste 8 Sudeste 0 -- -- 30
2020-09-06 22:00:00 25.9 3 Sudeste 5 Noroeste 0 -- -- 28
2020-09-06 21:00:00 30.3 6 Noroeste 22 Noroeste 0 -- -- 22
2020-09-06 20:00:00 33.8 12 Noroeste 25 Noroeste 0 -- -- 20
2020-09-06 19:00:00 34.8 12 Noroeste 32 Noroeste 0 -- -- 20
2020-09-06 18:00:00 35.3 12 Nordeste 30 Noroeste 0 -- -- 19
2020-09-06 17:00:00 35.7 13 Norte 26 Noroeste 0 -- -- 18
2020-09-06 16:00:00 35.7 14 Noroeste 36 Noroeste 0 -- -- 18
2020-09-06 15:00:00 34.6 9 Norte 24 Noroeste 0 -- -- 21
2020-09-06 14:00:00 33.4 9 Noroeste 19 Noroeste 0 -- -- 24
2020-09-06 13:00:00 31.7 8 Noroeste 15 Noroeste 0 -- -- 27
2020-09-06 12:00:00 30 5 Norte 11 Noroeste 0 -- -- 30
2020-09-06 11:00:00 27.1 4 Noroeste 14 Este 0 -- -- 36
2020-09-06 10:00:00 24.2 9 Este 17 Este 0 -- -- 46
2020-09-06 09:00:00 19.6 8 Sudeste 15 Sudeste 0 -- -- 57
2020-09-06 08:00:00 17.7 12 Sudeste 14 Sudeste 0 -- -- 55
2020-09-06 07:00:00 18.1 10 Sudeste 17 Sudeste 0 -- -- 48
2020-09-06 06:00:00 19.5 11 Sudeste 20 Sur 0 -- -- 43
2020-09-06 05:00:00 18.5 9 Sudeste 12 Sudeste 0 -- -- 42
2020-09-06 04:00:00 20 9 Sudeste 12 Sur 0 -- -- 38
2020-09-06 03:00:00 21 10 Sur 17 Sur 0 -- -- 35
2020-09-06 02:00:00 22.3 10 Sudeste 13 Sur 0 -- -- 32
2020-09-06 01:00:00 23.2 6 Sur 18 Sudeste 0 -- -- 32
2020-09-06 00:00:00 22.2 6 Sudeste 9 Sudeste 0 -- -- 34
2020-09-05 23:00:00 23.4 4 Sudeste 5 Sudeste 0 -- -- 33
2020-09-05 22:00:00 26.9 4 Noroeste 9 Noroeste 0 -- -- 27
2020-09-05 21:00:00 29.8 6 Noroeste 23 Noroeste 0 -- -- 24
2020-09-05 20:00:00 33.5 12 Noroeste 22 Noroeste 0 -- -- 21
2020-09-05 19:00:00 34.4 14 Noroeste 22 Noroeste 0 -- -- 20
2020-09-05 18:00:00 35 8 Nordeste 23 Norte 0 -- -- 20
2020-09-05 17:00:00 35.3 9 Norte 22 Norte 0 -- -- 21
2020-09-05 16:00:00 34.6 12 Norte 27 Noroeste 0 -- -- 22
2020-09-05 15:00:00 33.7 8 Noroeste 22 Noroeste 0 -- -- 23
2020-09-05 14:00:00 33.2 14 Noroeste 21 Noroeste 0 -- -- 25
2020-09-05 13:00:00 32.7 9 Este 15 Este 0 -- -- 25
2020-09-05 12:00:00 31.4 4 Nordeste 10 Este 0 -- -- 27
2020-09-05 11:00:00 28.2 6 Sudeste 11 Sudeste 0 -- -- 37
2020-09-05 10:00:00 23.6 8 Sur 16 Sur 0 -- -- 51
2020-09-05 09:00:00 18.4 8 Sudeste 14 Sudeste 0 -- -- 59
2020-09-05 08:00:00 16.9 10 Sur 15 Sudeste 0 -- -- 59
2020-09-05 07:00:00 17.8 11 Sudeste 21 Sudeste 0 -- -- 52
2020-09-05 06:00:00 19.2 12 Sur 15 Sur 0 -- -- 44
2020-09-05 05:00:00 19.9 9 Sur 12 Sur 0 -- -- 42
2020-09-05 04:00:00 21.8 9 Sudeste 18 Sudeste 0 -- -- 36
2020-09-05 03:00:00 23.4 7 Sudeste 24 Sur 0 -- -- 34
2020-09-05 02:00:00 25 8 Sudeste 19 Sudoeste 0 -- -- 32
2020-09-05 01:00:00 23.7 9 Sudeste 13 Sudeste 0 -- -- 31
2020-09-05 00:00:00 24.3 9 Sur 13 Sur 0 -- -- 31
2020-09-04 23:00:00 25 7 Sudeste 15 Sudeste 0 -- -- 33
2020-09-04 22:00:00 26.3 0 Calma 5 Noroeste 0 -- -- 32
2020-09-04 21:00:00 29.8 5 Noroeste 13 Noroeste 0 -- -- 27
2020-09-04 20:00:00 33.6 7 Noroeste 16 Este 0 -- -- 24
2020-09-04 19:00:00 34.4 3 Este 21 Este 0 -- -- 22
2020-09-04 18:00:00 34.8 6 Nordeste 19 Norte 0 -- -- 22
2020-09-04 17:00:00 34.6 8 Sudeste 23 Sudeste 0 -- -- 23
2020-09-04 16:00:00 34.1 9 Nordeste 21 Nordeste 0 -- -- 24
2020-09-04 15:00:00 33.4 9 Sudeste 30 Este 0 -- -- 26
2020-09-04 14:00:00 32.2 13 Sudeste 28 Sudeste 0 -- -- 29
2020-09-04 13:00:00 30.7 13 Este 24 Este 0 -- -- 31
2020-09-04 12:00:00 29.7 9 Sudeste 19 Este 0 -- -- 34
2020-09-04 11:00:00 27 12 Sudeste 22 Sudeste 0 -- -- 40
2020-09-04 10:00:00 23.9 10 Sudeste 15 Sudeste 0 -- -- 44
2020-09-04 09:00:00 19.8 9 Sur 12 Sudeste 0 -- -- 50
2020-09-04 08:00:00 17.3 8 Sudeste 13 Sudeste 0 -- -- 56
2020-09-04 07:00:00 17.3 8 Sur 13 Sudeste 0 -- -- 55
2020-09-04 06:00:00 17.9 2 Sur 10 Sudeste 0 -- -- 51
2020-09-04 05:00:00 18.9 8 Sur 13 Sudeste 0 -- -- 47
2020-09-04 04:00:00 20.1 6 Sudeste 14 Sudeste 0 -- -- 43
2020-09-04 03:00:00 21.9 12 Sudeste 23 Sudeste 0 -- -- 40
2020-09-04 02:00:00 22.5 11 Sudeste 17 Sudeste 0 -- -- 38
2020-09-04 01:00:00 23.7 10 Sudeste 14 Sudeste 0 -- -- 36
2020-09-04 00:00:00 23.2 8 Sudeste 13 Sudeste 0 -- -- 36
2020-09-03 23:00:00 27.3 11 Sur 25 Sur 0 -- -- 31
2020-09-03 22:00:00 25.8 11 Sudeste 18 Sudeste 0 -- -- 27
2020-09-03 21:00:00 29.7 0 Calma 13 Sudeste 0 -- -- 23
2020-09-03 20:00:00 33.8 7 Sur 23 Sudeste 0 -- -- 19
2020-09-03 19:00:00 34.3 12 Sudeste 22 Sudeste 0 -- -- 18
2020-09-03 18:00:00 34.9 9 Este 26 Este 0 -- -- 17
2020-09-03 17:00:00 34.9 10 Este 26 Este 0 -- -- 17
2020-09-03 16:00:00 34.3 5 Sudeste 30 Sudeste 0 -- -- 18
2020-09-03 15:00:00 34 13 Sudeste 34 Este 0 -- -- 19
2020-09-03 14:00:00 32.9 8 Sudeste 23 Sudeste 0 -- -- 20
2020-09-03 13:00:00 31.6 11 Sudeste 23 Sudeste 0 -- -- 23
2020-09-03 12:00:00 29.9 12 Sudeste 22 Sudeste 0 -- -- 27
2020-09-03 11:00:00 27.4 12 Sudeste 18 Sudeste 0 -- -- 33
2020-09-03 10:00:00 23.2 8 Sudeste 13 Sudeste 0 -- -- 41
2020-09-03 09:00:00 18.5 12 Sudeste 15 Sudeste 0 -- -- 47
2020-09-03 08:00:00 15.9 9 Sudeste 17 Sudeste 0 -- -- 49
2020-09-03 07:00:00 16.1 10 Sur 16 Sudeste 0 -- -- 46
2020-09-03 06:00:00 17.2 8 Sudeste 16 Sur 0 -- -- 43
2020-09-03 05:00:00 18 9 Sur 13 Sur 0 -- -- 42
2020-09-03 04:00:00 19.3 4 Sudeste 8 Este 0 -- -- 38
2020-09-03 03:00:00 22.8 2 Sur 29 Oeste 0 -- -- 31
2020-09-03 02:00:00 24.1 11 Oeste 23 Oeste 0 -- -- 29
2020-09-03 01:00:00 21 8 Sudeste 10 Sur 0 -- -- 41
2020-09-03 00:00:00 21.8 9 Sudeste 13 Sudeste 0 -- -- 33
2020-09-02 23:00:00 22.8 6 Sur 10 Sur 0 -- -- 28
2020-09-02 22:00:00 26.7 0 Calma 14 Nordeste 0 -- -- 24
2020-09-02 21:00:00 29.8 6 Nordeste 17 Norte 0 -- -- 21
2020-09-02 20:00:00 32.5 5 Norte 16 Nordeste 0 -- -- 16
2020-09-02 19:00:00 33.3 6 Nordeste 18 Nordeste 0 -- -- 16
2020-09-02 18:00:00 33.3 6 Norte 18 Norte 0 -- -- 16
2020-09-02 17:00:00 33.8 7 Sudoeste 24 Sur 0 -- -- 16
2020-09-02 16:00:00 33.3 6 Oeste 18 Nordeste 0 -- -- 17
2020-09-02 15:00:00 31.9 4 Noroeste 23 Sudeste 0 -- -- 18
2020-09-02 14:00:00 31.3 6 Sudeste 19 Este 0 -- -- 21
2020-09-02 13:00:00 28.6 7 Noroeste 15 Noroeste 0 -- -- 31
2020-09-02 12:00:00 26 6 Noroeste 11 Noroeste 0 -- -- 39
2020-09-02 11:00:00 24.3 3 Este 7 Sudeste 0 -- -- 43
2020-09-02 10:00:00 20.6 3 Sur 11 Sudeste 0 -- -- 53
2020-09-02 09:00:00 16.2 9 Sur 12 Sur 0 -- -- 65
2020-09-02 08:00:00 13.5 7 Sudeste 10 Sur 0 -- -- 72
2020-09-02 07:00:00 14.6 8 Sur 12 Sur 0 -- -- 69
2020-09-02 06:00:00 15.1 6 Sur 8 Sur 0 -- -- 69
2020-09-02 05:00:00 16.4 3 Sur 9 Sudeste 0 -- -- 65
2020-09-02 04:00:00 16.6 6 Sudeste 9 Sudeste 0 -- -- 63
2020-09-02 03:00:00 17.2 4 Sudeste 5 Sudeste 0 -- -- 60
2020-09-02 02:00:00 18.3 3 Sudeste 6 Oeste 0 -- -- 55
2020-09-02 01:00:00 20.6 5 Noroeste 22 Norte 0 -- -- 50
2020-09-02 00:00:00 22.7 16 Noroeste 29 Noroeste 0 -- -- 44
2020-09-01 23:00:00 24 13 Noroeste 22 Noroeste 0 -- -- 42
2020-09-01 22:00:00 24.3 3 Noroeste 9 Noroeste 0 -- -- 24
2020-09-01 21:00:00 26.7 8 Noroeste 26 Noroeste 0 -- -- 18
2020-09-01 20:00:00 29.9 14 Noroeste 24 Noroeste 0 -- -- 14
2020-09-01 19:00:00 31.3 12 Oeste 25 Oeste 0 -- -- 15
2020-09-01 18:00:00 31.3 14 Oeste 34 Norte 0 -- -- 15
2020-09-01 17:00:00 30.9 13 Norte 31 Norte 0 -- -- 17
2020-09-01 16:00:00 32 17 Noroeste 27 Noroeste 0 -- -- 15
2020-09-01 15:00:00 30.6 10 Norte 24 Norte 0 -- -- 17
2020-09-01 14:00:00 29.9 8 Norte 17 Norte 0 -- -- 17
2020-09-01 13:00:00 29.2 7 Norte 13 Noroeste 0 -- -- 18
2020-09-01 12:00:00 26.6 3 Norte 12 Noroeste 0 -- -- 21
2020-09-01 11:00:00 24.6 3 Norte 9 Sudeste 0 -- -- 23
2020-09-01 10:00:00 19.7 4 Sur 9 Sudeste 0 -- -- 31
2020-09-01 09:00:00 17.9 8 Sudeste 11 Sudeste 0 -- -- 33
2020-09-01 08:00:00 16.6 5 Sudeste 8 Noroeste 0 -- -- 35
2020-09-01 07:00:00 16.6 6 Noroeste 18 Norte 0 -- -- 35
2020-09-01 06:00:00 16.4 6 Sudeste 10 Sudeste 0 -- -- 34
2020-09-01 05:00:00 15.2 5 Sudeste 8 Sudeste 0 -- -- 35
2020-09-01 04:00:00 15.7 6 Sudeste 12 Sudeste 0 -- -- 35
2020-09-01 03:00:00 15.2 6 Sudeste 10 Sudeste 0 -- -- 35
2020-09-01 02:00:00 16.1 5 Sudeste 11 Sur 0 -- -- 32
2020-09-01 01:00:00 18.2 9 Sur 14 Sur 0 -- -- 28
2020-09-01 00:00:00 18.2 7 Sudeste 9 Sur 0 -- -- 30
2020-08-31 23:00:00 20.2 4 Sudeste 8 Norte 0 -- -- 27
2020-08-31 22:00:00 23.5 4 Noroeste 15 Norte 0 -- -- 23
2020-08-31 21:00:00 27.3 13 Norte 32 Norte 0 -- -- 19
2020-08-31 20:00:00 29.9 21 Noroeste 27 Noroeste 0 -- -- 17
2020-08-31 19:00:00 31.2 10 Norte 23 Noroeste 0 -- -- 16
2020-08-31 18:00:00 32 8 Oeste 14 Noroeste 0 -- -- 16
2020-08-31 17:00:00 31.2 8 Nordeste 18 Norte 0 -- -- 16
2020-08-31 16:00:00 30.7 11 Norte 21 Este 0 -- -- 17
2020-08-31 15:00:00 30.5 8 Este 18 Sudeste 0 -- -- 17
2020-08-31 14:00:00 29.4 8 Este 22 Nordeste 0 -- -- 19
2020-08-31 13:00:00 28.5 5 Sudeste 22 Este 0 -- -- 20
2020-08-31 12:00:00 26.3 13 Sudeste 26 Sudeste 0 -- -- 28
2020-08-31 11:00:00 24.1 13 Sudeste 22 Sudeste 0 -- -- 27
2020-08-31 10:00:00 21 5 Sur 10 Sur 0 -- -- 29
2020-08-31 09:00:00 13.6 2 Norte 5 Sudeste 0 -- -- 41
2020-08-31 08:00:00 13.3 3 Sur 12 Sudeste 0 -- -- 41
2020-08-31 07:00:00 13.8 10 Sudeste 14 Sur 0 -- -- 39
2020-08-31 06:00:00 14.6 11 Sudeste 14 Sudeste 0 -- -- 38
2020-08-31 05:00:00 16.7 9 Sudeste 14 Sudeste 0 -- -- 34
2020-08-31 04:00:00 13.1 3 Sudeste 8 Sur 0 -- -- 40
2020-08-31 03:00:00 13.7 5 Sudeste 8 Sudeste 0 -- -- 39
2020-08-31 02:00:00 14.5 3 Sur 7 Sudeste 0 -- -- 38
2020-08-31 01:00:00 17.7 2 Sur 11 Noroeste 0 -- -- 35
2020-08-31 00:00:00 22.1 9 Norte 19 Noroeste 0 -- -- 26
2020-08-30 23:00:00 22.7 10 Nordeste 21 Nordeste 0 -- -- 26
2020-08-30 22:00:00 20.6 0 Calma 9 Norte 0 -- -- 29
2020-08-30 21:00:00 24.1 5 Norte 27 Norte 0 -- -- 21
2020-08-30 20:00:00 26.9 14 Norte 25 Norte 0 -- -- 19
2020-08-30 19:00:00 27.6 14 Noroeste 28 Noroeste 0 -- -- 21
2020-08-30 18:00:00 28 17 Norte 27 Noroeste 0 -- -- 21
2020-08-30 17:00:00 27.9 17 Noroeste 26 Noroeste 0 -- -- 20
2020-08-30 16:00:00 27.9 12 Noroeste 23 Noroeste 0 -- -- 22
2020-08-30 15:00:00 26.7 9 Noroeste 28 Noroeste 0 -- -- 22
2020-08-30 14:00:00 26.2 6 Norte 24 Este 0 -- -- 25
2020-08-30 13:00:00 25.7 5 Este 14 Noroeste 0 -- -- 27
2020-08-30 12:00:00 23.6 4 Sudeste 14 Sudeste 0 -- -- 33
2020-08-30 11:00:00 20.3 8 Noroeste 14 Oeste 0 -- -- 41
2020-08-30 10:00:00 17.4 11 Noroeste 14 Noroeste 0 -- -- 48
2020-08-30 09:00:00 14.4 5 Noroeste 7 Noroeste 0 -- -- 58
2020-08-30 08:00:00 12.4 6 Noroeste 8 Noroeste 0 -- -- 64
2020-08-30 07:00:00 13.4 5 Noroeste 9 Noroeste 0 -- -- 58
2020-08-30 06:00:00 13.7 6 Noroeste 9 Noroeste 0 -- -- 56
2020-08-30 05:00:00 14.5 6 Noroeste 10 Noroeste 0 -- -- 51
2020-08-30 04:00:00 15 9 Noroeste 9 Noroeste 0 -- -- 48
2020-08-30 03:00:00 13.1 5 Noroeste 8 Noroeste 0 -- -- 51
2020-08-30 02:00:00 13.8 2 Norte 5 Noroeste 0 -- -- 49
2020-08-30 01:00:00 14.9 3 Noroeste 6 Noroeste 0 -- -- 44
2020-08-30 00:00:00 16.2 2 Sudeste 9 Noroeste 0 -- -- 41
2020-08-29 23:00:00 18.2 0 Calma 8 Noroeste 0 -- -- 36
2020-08-29 22:00:00 20.9 6 Noroeste 23 Norte 0 -- -- 32
2020-08-29 21:00:00 23.4 18 Noroeste 37 Noroeste 0 -- -- 28
2020-08-29 20:00:00 24.9 25 Noroeste 40 Norte 0 -- -- 25
2020-08-29 19:00:00 25.6 25 Noroeste 42 Norte 0 -- -- 24
2020-08-29 18:00:00 25.7 29 Norte 46 Noroeste 0 -- -- 25
2020-08-29 17:00:00 25.9 22 Noroeste 44 Noroeste 0 -- -- 25
2020-08-29 16:00:00 25.2 23 Noroeste 39 Norte 0 -- -- 26
2020-08-29 15:00:00 24.5 22 Noroeste 44 Noroeste 0 -- -- 30
2020-08-29 14:00:00 23.8 22 Norte 41 Noroeste 0 -- -- 32
2020-08-29 13:00:00 22.1 28 Noroeste 42 Noroeste 0 -- -- 36
2020-08-29 12:00:00 20 29 Noroeste 46 Noroeste 0 -- -- 41
2020-08-29 11:00:00 17.8 31 Noroeste 47 Noroeste 0 -- -- 47
2020-08-29 10:00:00 16.1 30 Noroeste 44 Noroeste 0 -- -- 52
2020-08-29 09:00:00 14.6 26 Noroeste 33 Noroeste 0 -- -- 58
2020-08-29 08:00:00 13.8 26 Noroeste 36 Noroeste 0 -- -- 63
2020-08-29 07:00:00 14.1 23 Noroeste 39 Noroeste 0 -- -- 66
2020-08-29 06:00:00 14.6 19 Noroeste 29 Noroeste 0 -- -- 64
2020-08-29 05:00:00 14.8 14 Norte 24 Noroeste 0 -- -- 64
2020-08-29 04:00:00 15.5 17 Noroeste 30 Noroeste 0 -- -- 62
2020-08-29 03:00:00 16.2 19 Noroeste 24 Noroeste 0 -- -- 59
2020-08-29 02:00:00 16.7 11 Noroeste 19 Noroeste 0 -- -- 55
2020-08-29 01:00:00 17.2 8 Noroeste 24 Noroeste 0 -- -- 50
2020-08-29 00:00:00 18.6 18 Noroeste 31 Noroeste 0 -- -- 48
2020-08-28 23:00:00 20.5 20 Noroeste 30 Noroeste 0 -- -- 43
2020-08-28 22:00:00 22.3 19 Noroeste 31 Noroeste 0 -- -- 29
2020-08-28 21:00:00 24.3 19 Noroeste 35 Noroeste 0 -- -- 27
2020-08-28 20:00:00 27.6 22 Noroeste 49 Noroeste 0 -- -- 21
2020-08-28 19:00:00 29.3 26 Noroeste 39 Noroeste 0 -- -- 18
2020-08-28 18:00:00 29.9 28 Noroeste 44 Noroeste 0 -- -- 16
2020-08-28 17:00:00 30.5 28 Noroeste 44 Noroeste 0 -- -- 21
2020-08-28 16:00:00 30.6 25 Noroeste 42 Noroeste 0 -- -- 29
2020-08-28 15:00:00 29.9 23 Noroeste 40 Noroeste 0 -- -- 37
2020-08-28 14:00:00 28.8 25 Noroeste 44 Noroeste 0 -- -- 39
2020-08-28 13:00:00 27.3 24 Noroeste 34 Noroeste 0 -- -- 44
2020-08-28 12:00:00 25.7 24 Noroeste 33 Noroeste 0 -- -- 50
2020-08-28 11:00:00 24.6 21 Noroeste 30 Noroeste 0 -- -- 52
2020-08-28 10:00:00 22.7 15 Noroeste 21 Norte 0 -- -- 54
2020-08-28 09:00:00 19 0 Calma 5 Sudeste 0 -- -- 74
2020-08-28 08:00:00 16.4 2 Sudeste 6 Sudeste 0 -- -- 83
2020-08-28 07:00:00 16.9 4 Sudeste 6 Sudeste 0 -- -- 81
2020-08-28 06:00:00 17.6 0 Calma 4 Sudeste 0 -- -- 78
2020-08-28 05:00:00 18.5 0 Calma 4 Nordeste 0 -- -- 74
2020-08-28 04:00:00 19.8 0 Calma 8 Norte 0 -- -- 73
2020-08-28 03:00:00 20.5 4 Noroeste 9 Noroeste 0 -- -- 69
2020-08-28 02:00:00 21.1 3 Oeste 6 Noroeste 0 -- -- 66
2020-08-28 01:00:00 23.2 2 Noroeste 11 Oeste 0 -- -- 59
2020-08-28 00:00:00 24.7 8 Oeste 16 Noroeste 0 -- -- 51
2020-08-27 23:00:00 26.9 13 Noroeste 34 Noroeste 0 -- -- 45
2020-08-27 22:00:00 29.1 11 Noroeste 26 Oeste 0 -- -- 35
2020-08-27 21:00:00 31.9 15 Noroeste 28 Oeste 0 -- -- 30
2020-08-27 20:00:00 34.3 17 Noroeste 27 Noroeste 0 -- -- 25
2020-08-27 19:00:00 35.4 19 Noroeste 33 Noroeste 0 -- -- 22
2020-08-27 18:00:00 35.7 21 Noroeste 33 Noroeste 0 -- -- 22
2020-08-27 17:00:00 35.7 24 Noroeste 34 Norte 0 -- -- 26
2020-08-27 16:00:00 35.5 15 Noroeste 26 Noroeste 0 -- -- 26
2020-08-27 15:00:00 34.1 11 Norte 19 Norte 0 -- -- 32
2020-08-27 14:00:00 32.9 6 Noroeste 21 Noroeste 0 -- -- 34
2020-08-27 13:00:00 31.6 15 Noroeste 21 Noroeste 0 -- -- 32
2020-08-27 12:00:00 30.3 8 Noroeste 14 Noroeste 0 -- -- 31
2020-08-27 11:00:00 26.8 4 Noroeste 9 Noroeste 0 -- -- 37
2020-08-27 10:00:00 23.7 10 Noroeste 12 Noroeste 0 -- -- 42
2020-08-27 09:00:00 21 3 Oeste 13 Sudeste 0 -- -- 45
2020-08-27 08:00:00 19.2 9 Sur 12 Sudeste 0 -- -- 46
2020-08-27 07:00:00 20 9 Sur 13 Sur 0 -- -- 42
2020-08-27 06:00:00 20.5 9 Sur 13 Sur 0 -- -- 40
2020-08-27 05:00:00 20.2 9 Sur 12 Sudeste 0 -- -- 42
2020-08-27 04:00:00 20.6 8 Sur 10 Sur 0 -- -- 46
2020-08-27 03:00:00 20.3 8 Sudeste 10 Sudeste 0 -- -- 44
2020-08-27 02:00:00 20.7 5 Sudeste 7 Sudeste 0 -- -- 37
2020-08-27 01:00:00 22.1 3 Sudeste 9 Sudeste 0 -- -- 33
2020-08-27 00:00:00 23.7 7 Sudeste 9 Sudeste 0 -- -- 30
2020-08-26 23:00:00 26.1 5 Sudeste 9 Norte 0 -- -- 27
2020-08-26 22:00:00 29.1 2 Noroeste 14 Oeste 0 -- -- 22
2020-08-26 21:00:00 33.1 9 Noroeste 24 Noroeste 0 -- -- 18
2020-08-26 20:00:00 36.1 10 Noroeste 23 Oeste 0 -- -- 12
2020-08-26 19:00:00 37.7 9 Oeste 22 Oeste 0 -- -- 15
2020-08-26 18:00:00 37.9 12 Sudoeste 27 Noroeste 0 -- -- 17
2020-08-26 17:00:00 38.2 9 Noroeste 21 Oeste 0 -- -- 18
2020-08-26 16:00:00 37.2 12 Noroeste 24 Noroeste 0 -- -- 19
2020-08-26 15:00:00 37.3 7 Nordeste 23 Oeste 0 -- -- 18
2020-08-26 14:00:00 36 10 Noroeste 22 Oeste 0 -- -- 20
2020-08-26 13:00:00 35.1 6 Sur 22 Sur 0 -- -- 22
2020-08-26 12:00:00 34.1 13 Sur 20 Sudeste 0 -- -- 19
2020-08-26 11:00:00 32 10 Sudeste 20 Sudeste 0 -- -- 20
2020-08-26 10:00:00 27.3 10 Sudeste 16 Sudeste 0 -- -- 30
2020-08-26 09:00:00 21.7 10 Sur 13 Sur 0 -- -- 40
2020-08-26 08:00:00 19.2 9 Sur 12 Sudeste 0 -- -- 44
2020-08-26 07:00:00 18.9 9 Sur 12 Sudeste 0 -- -- 44
2020-08-26 06:00:00 18.8 9 Sudeste 11 Sur 0 -- -- 43
2020-08-26 05:00:00 19.7 8 Sudeste 11 Sudeste 0 -- -- 40
2020-08-26 04:00:00 20.1 8 Sudeste 9 Sudeste 0 -- -- 41
2020-08-26 03:00:00 20.8 6 Sudeste 7 Sur 0 -- -- 40
2020-08-26 02:00:00 23.2 0 Calma 10 Noroeste 0 -- -- 35
2020-08-26 01:00:00 25.3 7 Noroeste 12 Noroeste 0 -- -- 33
2020-08-26 00:00:00 24.5 6 Noroeste 12 Norte 0 -- -- 34
2020-08-25 23:00:00 26.2 4 Sudeste 6 Sudeste 0 -- -- 32
2020-08-25 22:00:00 29.5 2 Oeste 10 Noroeste 0 -- -- 28
2020-08-25 21:00:00 33 8 Noroeste 20 Noroeste 0 -- -- 23
2020-08-25 20:00:00 36.1 14 Noroeste 28 Norte 0 -- -- 21
2020-08-25 19:00:00 37.2 14 Noroeste 25 Noroeste 0 -- -- 21
2020-08-25 18:00:00 38 12 Noroeste 22 Oeste 0 -- -- 20
2020-08-25 17:00:00 38.1 6 Sudoeste 23 Oeste 0 -- -- 19
2020-08-25 16:00:00 37 12 Norte 26 Noroeste 0 -- -- 21
2020-08-25 15:00:00 36.4 8 Noroeste 19 Noroeste 0 -- -- 21
2020-08-25 14:00:00 35.8 10 Sudeste 19 Este 0 -- -- 21
2020-08-25 13:00:00 34.6 4 Noroeste 18 Norte 0 -- -- 24
2020-08-25 12:00:00 33 5 Noroeste 12 Sudeste 0 -- -- 26
2020-08-25 11:00:00 31 8 Sudeste 14 Sudeste 0 -- -- 31
2020-08-25 10:00:00 26.4 9 Sudeste 17 Sudeste 0 -- -- 41
2020-08-25 09:00:00 21 9 Sudeste 13 Sudeste 0 -- -- 53
2020-08-25 08:00:00 18.6 11 Sudeste 15 Sur 0 -- -- 59
2020-08-25 07:00:00 19.1 9 Sur 12 Sur 0 -- -- 60
2020-08-25 06:00:00 20.2 9 Sur 12 Sur 0 -- -- 57
2020-08-25 05:00:00 21.2 6 Sudeste 9 Sudeste 0 -- -- 53
2020-08-25 04:00:00 22.3 4 Sudeste 9 Sudeste 0 -- -- 51
2020-08-25 03:00:00 24.5 5 Sudeste 12 Este 0 -- -- 45
2020-08-25 02:00:00 26.6 8 Sudoeste 27 Sur 0 -- -- 39
2020-08-25 01:00:00 27.8 16 Sudoeste 29 Sudoeste 0 -- -- 37
2020-08-25 00:00:00 28.7 11 Sudoeste 25 Sudoeste 0 -- -- 27
2020-08-24 23:00:00 26.3 7 Sudeste 9 Sudeste 0 -- -- 28
2020-08-24 22:00:00 29.3 4 Noroeste 13 Noroeste 0 -- -- 24
2020-08-24 21:00:00 32.5 9 Noroeste 19 Noroeste 0 -- -- 22
2020-08-24 20:00:00 35.7 15 Noroeste 24 Noroeste 0 -- -- 19
2020-08-24 19:00:00 36.8 15 Noroeste 26 Noroeste 0 -- -- 17
2020-08-24 18:00:00 37.5 5 Norte 27 Noroeste 0 -- -- 14
2020-08-24 17:00:00 37.5 6 Oeste 15 Sudeste 0 -- -- 14
2020-08-24 16:00:00 37.6 5 Sur 31 Sur 0 -- -- 14
2020-08-24 15:00:00 36.6 5 Sudoeste 17 Sudeste 0 -- -- 15
2020-08-24 14:00:00 35.1 4 Sudeste 18 Sudeste 0 -- -- 16
2020-08-24 13:00:00 33.8 7 Este 16 Sudeste 0 -- -- 19
2020-08-24 12:00:00 31.2 4 Este 11 Sudeste 0 -- -- 27
2020-08-24 11:00:00 27.9 2 Nordeste 8 Sur 0 -- -- 34
2020-08-24 10:00:00 22.9 7 Sudeste 12 Sudeste 0 -- -- 45
2020-08-24 09:00:00 18.2 7 Sudeste 12 Sur 0 -- -- 56
2020-08-24 08:00:00 15.2 8 Sur 14 Sur 0 -- -- 63
2020-08-24 07:00:00 15.4 10 Sudeste 12 Sudeste 0 -- -- 65
2020-08-24 06:00:00 16.5 8 Sur 10 Sur 0 -- -- 63
2020-08-24 05:00:00 16.4 7 Sudeste 10 Sudeste 0 -- -- 60
2020-08-24 04:00:00 17.4 8 Sudeste 10 Sur 0 -- -- 58
2020-08-24 03:00:00 18.3 6 Sudeste 10 Sudeste 0 -- -- 55
2020-08-24 02:00:00 19 5 Sudeste 8 Sudeste 0 -- -- 49
2020-08-24 01:00:00 19.3 3 Sudeste 5 Sudeste 0 -- -- 38
2020-08-24 00:00:00 20.8 0 Calma 12 Sudeste 0 -- -- 32
2020-08-23 23:00:00 22.7 8 Sudeste 9 Sudeste 0 -- -- 29
2020-08-23 22:00:00 25.1 4 Sudeste 6 Noroeste 0 -- -- 26
2020-08-23 21:00:00 29.9 5 Noroeste 25 Noroeste 0 -- -- 20
2020-08-23 20:00:00 33 13 Noroeste 26 Noroeste 0 -- -- 18
2020-08-23 19:00:00 33.7 13 Noroeste 26 Noroeste 0 -- -- 17
2020-08-23 18:00:00 33.8 14 Noroeste 27 Norte 0 -- -- 18
2020-08-23 17:00:00 32.7 13 Noroeste 27 Norte 0 -- -- 21
2020-08-23 16:00:00 32.2 13 Noroeste 34 Norte 0 -- -- 19
2020-08-23 15:00:00 31.3 15 Noroeste 39 Noroeste 0 -- -- 20
2020-08-23 14:00:00 30.8 15 Noroeste 32 Noroeste 0 -- -- 23
2020-08-23 13:00:00 29 15 Norte 23 Noroeste 0 -- -- 24
2020-08-23 12:00:00 26.9 14 Norte 22 Noroeste 0 -- -- 31
2020-08-23 11:00:00 24.4 11 Noroeste 18 Noroeste 0 -- -- 38
2020-08-23 10:00:00 21.8 9 Noroeste 13 Noroeste 0 -- -- 44
2020-08-23 09:00:00 17 5 Sur 11 Sudeste 0 -- -- 53
2020-08-23 08:00:00 13.1 7 Sudeste 9 Sudeste 0 -- -- 64
2020-08-23 07:00:00 13.5 6 Sudeste 8 Sudeste 0 -- -- 62
2020-08-23 06:00:00 13.4 5 Noroeste 9 Noroeste 0 -- -- 59
2020-08-23 05:00:00 14.3 0 Calma 5 Noroeste 0 -- -- 55
2020-08-23 04:00:00 16.7 5 Noroeste 9 Noroeste 0 -- -- 49
2020-08-23 03:00:00 16.2 5 Noroeste 6 Noroeste 0 -- -- 48
2020-08-23 02:00:00 16.6 0 Calma 5 Sudeste 0 -- -- 43
2020-08-23 01:00:00 18 2 Sudeste 7 Sudeste 0 -- -- 38
2020-08-23 00:00:00 19.2 4 Sudeste 8 Sudeste 0 -- -- 35
2020-08-22 23:00:00 21.3 7 Sudeste 9 Sudeste 0 -- -- 32
2020-08-22 22:00:00 25.8 4 Noroeste 9 Norte 0 -- -- 25
2020-08-22 21:00:00 29.1 8 Noroeste 22 Norte 0 -- -- 21
2020-08-22 20:00:00 32.1 13 Noroeste 26 Noroeste 0 -- -- 19
2020-08-22 19:00:00 32.7 12 Noroeste 21 Noroeste 0 -- -- 19
2020-08-22 18:00:00 32.6 15 Noroeste 26 Norte 0 -- -- 19
2020-08-22 17:00:00 32.7 15 Noroeste 30 Noroeste 0 -- -- 20
2020-08-22 16:00:00 32.1 16 Norte 25 Noroeste 0 -- -- 22
2020-08-22 15:00:00 31.1 12 Noroeste 25 Noroeste 0 -- -- 19
2020-08-22 14:00:00 29.4 12 Noroeste 21 Noroeste 0 -- -- 26
2020-08-22 13:00:00 28.2 8 Noroeste 18 Noroeste 0 -- -- 34
2020-08-22 12:00:00 26.1 8 Noroeste 13 Noroeste 0 -- -- 42
2020-08-22 11:00:00 23.3 6 Noroeste 12 Norte 0 -- -- 50
2020-08-22 10:00:00 21.3 9 Noroeste 13 Noroeste 0 -- -- 55
2020-08-22 09:00:00 17.7 4 Sudeste 8 Sur 0 -- -- 66
2020-08-22 08:00:00 15.3 7 Sur 11 Sudeste 0 -- -- 73
2020-08-22 07:00:00 15.7 6 Sudeste 8 Sudeste 0 -- -- 72
2020-08-22 06:00:00 16.4 4 Sudeste 6 Sudeste 0 -- -- 69
2020-08-22 05:00:00 17.5 3 Sudeste 5 Oeste 0 -- -- 66
2020-08-22 04:00:00 18.9 4 Noroeste 12 Norte 0 -- -- 61
2020-08-22 03:00:00 20 5 Noroeste 17 Norte 0 -- -- 57
2020-08-22 02:00:00 21.2 11 Noroeste 14 Norte 0 -- -- 54
2020-08-22 01:00:00 21.9 5 Noroeste 12 Norte 0 -- -- 55
2020-08-22 00:00:00 23.5 10 Norte 18 Noroeste 0 -- -- 52
2020-08-21 23:00:00 24.7 13 Noroeste 33 Noroeste 0 -- -- 50
2020-08-21 22:00:00 26.8 14 Noroeste 35 Noroeste 0 -- -- 51
2020-08-21 21:00:00 28.1 18 Noroeste 27 Noroeste 0 -- -- 51
2020-08-21 20:00:00 30.5 14 Noroeste 25 Noroeste 0 -- -- 47
2020-08-21 19:00:00 31.3 14 Oeste 24 Oeste 0 -- -- 44
2020-08-21 18:00:00 32.4 14 Oeste 34 Noroeste 0 -- -- 42
2020-08-21 17:00:00 31.8 10 Noroeste 29 Oeste 0 -- -- 41
2020-08-21 16:00:00 32.3 14 Noroeste 27 Oeste 0 -- -- 39
2020-08-21 15:00:00 31.7 11 Oeste 28 Sudoeste 0 -- -- 38
2020-08-21 14:00:00 30.9 11 Sudoeste 36 Oeste 0 -- -- 43
2020-08-21 13:00:00 29.3 9 Sudoeste 21 Oeste 0 -- -- 47
2020-08-21 12:00:00 27.3 4 Este 14 Sudeste 0 -- -- 56
2020-08-21 11:00:00 25 5 Nordeste 12 Nordeste 0 -- -- 64
2020-08-21 10:00:00 22.2 6 Noroeste 10 Norte 0 -- -- 76
2020-08-21 09:00:00 19.7 0 Calma 7 Sur 0 -- -- 87
2020-08-21 08:00:00 17.5 3 Sudeste 6 Sudeste 0 -- -- 91
2020-08-21 07:00:00 17.6 3 Sudeste 4 Este 0 -- -- 88
2020-08-21 06:00:00 18.5 0 Calma 9 Sudeste 0 -- -- 87
2020-08-21 05:00:00 19.4 4 Sudeste 8 Este 0 -- -- 84
2020-08-21 04:00:00 20.6 7 Este 11 Este 0 -- -- 81
2020-08-21 03:00:00 21.4 4 Este 13 Oeste 0 -- -- 76
2020-08-21 02:00:00 22.8 5 Sur 12 Sudoeste 0 -- -- 72
2020-08-21 01:00:00 23.7 8 Noroeste 14 Noroeste 0 -- -- 66
2020-08-21 00:00:00 25 9 Noroeste 15 Noroeste 0 -- -- 60
2020-08-20 23:00:00 26.5 9 Noroeste 22 Noroeste 0 -- -- 54
2020-08-20 22:00:00 27.6 8 Noroeste 26 Noroeste 0 -- -- 42
2020-08-20 21:00:00 29.8 15 Noroeste 31 Noroeste 0 -- -- 36
2020-08-20 20:00:00 32.4 13 Oeste 30 Sudoeste 0 -- -- 28
2020-08-20 19:00:00 33.8 13 Oeste 32 Sudoeste 0 -- -- 23
2020-08-20 18:00:00 34.5 14 Oeste 31 Oeste 0 -- -- 19
2020-08-20 17:00:00 34.4 12 Noroeste 30 Oeste 0 -- -- 18
2020-08-20 16:00:00 34.5 11 Oeste 27 Sudoeste 0 -- -- 17
2020-08-20 15:00:00 33.7 8 Oeste 31 Oeste 0 -- -- 17
2020-08-20 14:00:00 32.4 10 Oeste 27 Oeste 0 -- -- 18
2020-08-20 13:00:00 30.9 12 Sur 27 Sur 0 -- -- 19
2020-08-20 12:00:00 27.9 4 Sudeste 11 Sudeste 0 -- -- 33
2020-08-20 11:00:00 23.1 3 Noroeste 10 Noroeste 0 -- -- 57
2020-08-20 10:00:00 19.7 0 Calma 6 Sudeste 0 -- -- 63
2020-08-20 09:00:00 14.6 3 Sudeste 10 Sudeste 0 -- -- 64
2020-08-20 08:00:00 13.7 7 Sudeste 13 Sur 0 -- -- 68
2020-08-20 07:00:00 14.4 6 Sur 9 Sur 0 -- -- 71
2020-08-20 06:00:00 14.1 7 Sur 9 Sudeste 0 -- -- 66
2020-08-20 05:00:00 14.9 5 Sudeste 8 Sur 0 -- -- 60
2020-08-20 04:00:00 16.7 4 Sur 8 Este 0 -- -- 53
2020-08-20 03:00:00 19.5 6 Sur 15 Sudeste 0 -- -- 44
2020-08-20 02:00:00 19.1 8 Sudeste 11 Sudeste 0 -- -- 38
2020-08-20 01:00:00 20.8 2 Sudeste 10 Oeste 0 -- -- 36
2020-08-20 00:00:00 24.5 10 Noroeste 26 Noroeste 0 -- -- 30